sensor_id;sensor_type;location;lat;lon;timestamp;P1;durP1;ratioP1;P2;durP2;ratioP2
63606;SDS011;51327;52.466;-1.938;2022-07-12T00:02:12;0.30;;;0.22;;
63606;SDS011;51327;52.466;-1.938;2022-07-12T00:04:45;0.47;;;0.28;;
63606;SDS011;51327;52.466;-1.938;2022-07-12T00:07:30;0.20;;;0.20;;
63606;SDS011;51327;52.466;-1.938;2022-07-12T00:10:05;0.32;;;0.30;;
63606;SDS011;51327;52.466;-1.938;2022-07-12T00:12:39;0.20;;;0.20;;
63606;SDS011;51327;52.466;-1.938;2022-07-12T00:23:25;0.30;;;0.15;;
63606;SDS011;51327;52.466;-1.938;2022-07-12T00:26:08;0.80;;;0.30;;
63606;SDS011;51327;52.466;-1.938;2022-07-12T00:31:54;0.38;;;0.30;;
63606;SDS011;51327;52.466;-1.938;2022-07-12T00:34:28;0.30;;;0.28;;
63606;SDS011;51327;52.466;-1.938;2022-07-12T00:37:14;0.10;;;0.10;;
63606;SDS011;51327;52.466;-1.938;2022-07-12T00:43:26;0.38;;;0.20;;
63606;SDS011;51327;52.466;-1.938;2022-07-12T00:46:07;0.13;;;0.13;;
63606;SDS011;51327;52.466;-1.938;2022-07-12T00:48:34;0.20;;;0.20;;
63606;SDS011;51327;52.466;-1.938;2022-07-12T00:54:23;0.22;;;0.20;;
63606;SDS011;51327;52.466;-1.938;2022-07-12T00:57:05;0.35;;;0.20;;
63606;SDS011;51327;52.466;-1.938;2022-07-12T01:02:29;0.10;;;0.10;;
63606;SDS011;51327;52.466;-1.938;2022-07-12T01:04:58;0.10;;;0.10;;
63606;SDS011;51327;52.466;-1.938;2022-07-12T01:07:26;0.20;;;0.20;;
63606;SDS011;51327;52.466;-1.938;2022-07-12T01:13:01;0.10;;;0.10;;
63606;SDS011;51327;52.466;-1.938;2022-07-12T01:15:48;0.20;;;0.20;;
63606;SDS011;51327;52.466;-1.938;2022-07-12T01:18:34;0.13;;;0.10;;
63606;SDS011;51327;52.466;-1.938;2022-07-12T01:21:15;0.30;;;0.13;;
63606;SDS011;51327;52.466;-1.938;2022-07-12T01:23:46;0.17;;;0.17;;
63606;SDS011;51327;52.466;-1.938;2022-07-12T01:35:49;0.75;;;0.20;;
63606;SDS011;51327;52.466;-1.938;2022-07-12T01:43:44;0.57;;;0.10;;
63606;SDS011;51327;52.466;-1.938;2022-07-12T02:09:09;0.30;;;0.20;;
63606;SDS011;51327;52.466;-1.938;2022-07-12T02:11:52;0.82;;;0.40;;
63606;SDS011;51327;52.466;-1.938;2022-07-12T02:14:59;0.35;;;0.20;;
63606;SDS011;51327;52.466;-1.938;2022-07-12T02:17:39;0.20;;;0.15;;
63606;SDS011;51327;52.466;-1.938;2022-07-12T02:20:10;0.32;;;0.25;;
63606;SDS011;51327;52.466;-1.938;2022-07-12T02:22:38;0.30;;;0.20;;
63606;SDS011;51327;52.466;-1.938;2022-07-12T02:25:11;0.32;;;0.28;;
63606;SDS011;51327;52.466;-1.938;2022-07-12T02:27:50;0.20;;;0.20;;
63606;SDS011;51327;52.466;-1.938;2022-07-12T02:30:35;0.30;;;0.20;;
63606;SDS011;51327;52.466;-1.938;2022-07-12T02:36:28;0.43;;;0.30;;
63606;SDS011;51327;52.466;-1.938;2022-07-12T02:39:08;0.10;;;0.10;;
63606;SDS011;51327;52.466;-1.938;2022-07-12T02:41:39;0.30;;;0.30;;
63606;SDS011;51327;52.466;-1.938;2022-07-12T03:01:54;0.32;;;0.25;;
63606;SDS011;51327;52.466;-1.938;2022-07-12T03:04:22;0.10;;;0.10;;
63606;SDS011;51327;52.466;-1.938;2022-07-12T03:06:48;0.20;;;0.20;;
63606;SDS011;51327;52.466;-1.938;2022-07-12T03:09:14;0.40;;;0.22;;
63606;SDS011;51327;52.466;-1.938;2022-07-12T03:11:44;0.68;;;0.10;;
63606;SDS011;51327;52.466;-1.938;2022-07-12T03:14:10;0.20;;;0.20;;
63606;SDS011;51327;52.466;-1.938;2022-07-12T03:16:36;0.68;;;0.30;;
63606;SDS011;51327;52.466;-1.938;2022-07-12T03:19:03;0.50;;;0.30;;
63606;SDS011;51327;52.466;-1.938;2022-07-12T03:21:29;0.22;;;0.20;;
63606;SDS011;51327;52.466;-1.938;2022-07-12T03:23:55;0.10;;;0.10;;
63606;SDS011;51327;52.466;-1.938;2022-07-12T03:26:25;0.10;;;0.10;;
63606;SDS011;51327;52.466;-1.938;2022-07-12T03:28:51;0.13;;;0.10;;
63606;SDS011;51327;52.466;-1.938;2022-07-12T03:31:20;0.40;;;0.30;;
63606;SDS011;51327;52.466;-1.938;2022-07-12T03:33:47;0.40;;;0.30;;
63606;SDS011;51327;52.466;-1.938;2022-07-12T03:36:13;0.30;;;0.20;;
63606;SDS011;51327;52.466;-1.938;2022-07-12T03:38:39;0.40;;;0.20;;
63606;SDS011;51327;52.466;-1.938;2022-07-12T03:41:09;0.15;;;0.15;;
63606;SDS011;51327;52.466;-1.938;2022-07-12T03:43:34;0.10;;;0.10;;
63606;SDS011;51327;52.466;-1.938;2022-07-12T03:46:00;0.10;;;0.10;;
63606;SDS011;51327;52.466;-1.938;2022-07-12T03:48:28;0.32;;;0.20;;
63606;SDS011;51327;52.466;-1.938;2022-07-12T03:50:54;0.43;;;0.20;;
63606;SDS011;51327;52.466;-1.938;2022-07-12T03:53:21;0.32;;;0.25;;
63606;SDS011;51327;52.466;-1.938;2022-07-12T03:55:50;0.13;;;0.10;;
63606;SDS011;51327;52.466;-1.938;2022-07-12T03:58:16;0.22;;;0.17;;
63606;SDS011;51327;52.466;-1.938;2022-07-12T04:00:41;0.25;;;0.20;;
63606;SDS011;51327;52.466;-1.938;2022-07-12T04:03:10;0.20;;;0.20;;
63606;SDS011;51327;52.466;-1.938;2022-07-12T04:05:36;0.40;;;0.17;;
63606;SDS011;51327;52.466;-1.938;2022-07-12T04:08:03;0.30;;;0.30;;
63606;SDS011;51327;52.466;-1.938;2022-07-12T04:10:34;0.30;;;0.20;;
63606;SDS011;51327;52.466;-1.938;2022-07-12T04:13:00;0.38;;;0.20;;
63606;SDS011;51327;52.466;-1.938;2022-07-12T04:15:26;0.22;;;0.22;;
63606;SDS011;51327;52.466;-1.938;2022-07-12T04:17:56;0.30;;;0.20;;
63606;SDS011;51327;52.466;-1.938;2022-07-12T04:20:22;0.40;;;0.20;;
63606;SDS011;51327;52.466;-1.938;2022-07-12T04:22:47;0.22;;;0.22;;
63606;SDS011;51327;52.466;-1.938;2022-07-12T04:25:15;0.38;;;0.30;;
63606;SDS011;51327;52.466;-1.938;2022-07-12T04:27:41;0.20;;;0.15;;
63606;SDS011;51327;52.466;-1.938;2022-07-12T04:30:07;0.30;;;0.20;;
63606;SDS011;51327;52.466;-1.938;2022-07-12T04:32:35;0.30;;;0.30;;
63606;SDS011;51327;52.466;-1.938;2022-07-12T04:35:01;0.20;;;0.20;;
63606;SDS011;51327;52.466;-1.938;2022-07-12T04:37:27;0.50;;;0.30;;
63606;SDS011;51327;52.466;-1.938;2022-07-12T04:39:55;0.32;;;0.30;;
63606;SDS011;51327;52.466;-1.938;2022-07-12T04:42:21;0.30;;;0.28;;
63606;SDS011;51327;52.466;-1.938;2022-07-12T04:44:47;0.30;;;0.30;;
63606;SDS011;51327;52.466;-1.938;2022-07-12T04:47:25;0.28;;;0.28;;
63606;SDS011;51327;52.466;-1.938;2022-07-12T04:49:53;0.22;;;0.22;;
63606;SDS011;51327;52.466;-1.938;2022-07-12T04:52:18;0.60;;;0.45;;
63606;SDS011;51327;52.466;-1.938;2022-07-12T04:54:44;0.30;;;0.30;;
63606;SDS011;51327;52.466;-1.938;2022-07-12T04:57:14;0.75;;;0.30;;
63606;SDS011;51327;52.466;-1.938;2022-07-12T04:59:40;0.32;;;0.32;;
63606;SDS011;51327;52.466;-1.938;2022-07-12T05:02:06;0.28;;;0.28;;
63606;SDS011;51327;52.466;-1.938;2022-07-12T05:04:37;0.52;;;0.30;;
63606;SDS011;51327;52.466;-1.938;2022-07-12T05:07:05;0.52;;;0.30;;
63606;SDS011;51327;52.466;-1.938;2022-07-12T05:09:31;0.25;;;0.22;;
63606;SDS011;51327;52.466;-1.938;2022-07-12T05:12:00;0.45;;;0.30;;
63606;SDS011;51327;52.466;-1.938;2022-07-12T05:14:31;0.28;;;0.20;;
63606;SDS011;51327;52.466;-1.938;2022-07-12T05:16:57;0.70;;;0.40;;
63606;SDS011;51327;52.466;-1.938;2022-07-12T05:19:23;0.30;;;0.30;;
63606;SDS011;51327;52.466;-1.938;2022-07-12T05:21:51;0.30;;;0.30;;
63606;SDS011;51327;52.466;-1.938;2022-07-12T05:24:32;0.40;;;0.30;;
63606;SDS011;51327;52.466;-1.938;2022-07-12T05:27:00;0.30;;;0.30;;
63606;SDS011;51327;52.466;-1.938;2022-07-12T05:29:26;0.30;;;0.30;;
63606;SDS011;51327;52.466;-1.938;2022-07-12T05:31:56;0.32;;;0.30;;
63606;SDS011;51327;52.466;-1.938;2022-07-12T05:34:24;0.88;;;0.55;;
63606;SDS011;51327;52.466;-1.938;2022-07-12T05:36:50;0.45;;;0.35;;
63606;SDS011;51327;52.466;-1.938;2022-07-12T05:39:16;0.50;;;0.40;;
63606;SDS011;51327;52.466;-1.938;2022-07-12T05:41:44;0.57;;;0.30;;
63606;SDS011;51327;52.466;-1.938;2022-07-12T05:44:13;0.45;;;0.30;;
63606;SDS011;51327;52.466;-1.938;2022-07-12T05:46:42;0.70;;;0.40;;
63606;SDS011;51327;52.466;-1.938;2022-07-12T05:49:11;0.40;;;0.40;;
63606;SDS011;51327;52.466;-1.938;2022-07-12T05:51:40;0.30;;;0.30;;
63606;SDS011;51327;52.466;-1.938;2022-07-12T05:54:26;0.38;;;0.30;;
63606;SDS011;51327;52.466;-1.938;2022-07-12T05:56:56;0.20;;;0.20;;
63606;SDS011;51327;52.466;-1.938;2022-07-12T05:59:22;0.20;;;0.20;;
63606;SDS011;51327;52.466;-1.938;2022-07-12T06:01:48;0.77;;;0.40;;
63606;SDS011;51327;52.466;-1.938;2022-07-12T06:04:16;0.93;;;0.35;;
63606;SDS011;51327;52.466;-1.938;2022-07-12T06:06:41;0.60;;;0.50;;
63606;SDS011;51327;52.466;-1.938;2022-07-12T06:09:07;0.40;;;0.30;;
63606;SDS011;51327;52.466;-1.938;2022-07-12T06:11:35;1.08;;;0.30;;
63606;SDS011;51327;52.466;-1.938;2022-07-12T06:14:03;0.70;;;0.40;;
63606;SDS011;51327;52.466;-1.938;2022-07-12T06:16:29;0.40;;;0.30;;
63606;SDS011;51327;52.466;-1.938;2022-07-12T06:18:57;0.47;;;0.32;;
63606;SDS011;51327;52.466;-1.938;2022-07-12T06:21:23;0.60;;;0.40;;
63606;SDS011;51327;52.466;-1.938;2022-07-12T06:23:49;0.57;;;0.45;;
63606;SDS011;51327;52.466;-1.938;2022-07-12T06:26:17;0.45;;;0.30;;
63606;SDS011;51327;52.466;-1.938;2022-07-12T06:28:47;0.60;;;0.40;;
63606;SDS011;51327;52.466;-1.938;2022-07-12T06:31:17;0.40;;;0.30;;
63606;SDS011;51327;52.466;-1.938;2022-07-12T06:33:49;0.40;;;0.40;;
63606;SDS011;51327;52.466;-1.938;2022-07-12T06:36:17;0.52;;;0.50;;
63606;SDS011;51327;52.466;-1.938;2022-07-12T06:38:43;0.50;;;0.43;;
63606;SDS011;51327;52.466;-1.938;2022-07-12T06:41:09;0.40;;;0.40;;
63606;SDS011;51327;52.466;-1.938;2022-07-12T06:43:37;0.20;;;0.20;;
63606;SDS011;51327;52.466;-1.938;2022-07-12T06:46:02;0.65;;;0.50;;
63606;SDS011;51327;52.466;-1.938;2022-07-12T06:48:29;0.50;;;0.40;;
63606;SDS011;51327;52.466;-1.938;2022-07-12T06:50:58;1.10;;;0.32;;
63606;SDS011;51327;52.466;-1.938;2022-07-12T06:53:26;0.47;;;0.32;;
63606;SDS011;51327;52.466;-1.938;2022-07-12T06:55:51;0.45;;;0.40;;
63606;SDS011;51327;52.466;-1.938;2022-07-12T06:58:20;0.77;;;0.40;;
63606;SDS011;51327;52.466;-1.938;2022-07-12T07:01:13;0.35;;;0.30;;
63606;SDS011;51327;52.466;-1.938;2022-07-12T07:03:41;0.45;;;0.40;;
63606;SDS011;51327;52.466;-1.938;2022-07-12T07:06:09;0.60;;;0.50;;
63606;SDS011;51327;52.466;-1.938;2022-07-12T07:08:35;0.55;;;0.50;;
63606;SDS011;51327;52.466;-1.938;2022-07-12T07:11:03;1.08;;;0.50;;
63606;SDS011;51327;52.466;-1.938;2022-07-12T07:13:28;0.40;;;0.40;;
63606;SDS011;51327;52.466;-1.938;2022-07-12T07:16:01;0.70;;;0.50;;
63606;SDS011;51327;52.466;-1.938;2022-07-12T07:18:29;0.30;;;0.30;;
63606;SDS011;51327;52.466;-1.938;2022-07-12T07:20:56;0.45;;;0.30;;
63606;SDS011;51327;52.466;-1.938;2022-07-12T07:23:25;0.30;;;0.30;;
63606;SDS011;51327;52.466;-1.938;2022-07-12T07:25:53;0.40;;;0.40;;
63606;SDS011;51327;52.466;-1.938;2022-07-12T07:28:19;0.55;;;0.38;;
63606;SDS011;51327;52.466;-1.938;2022-07-12T07:30:45;0.35;;;0.32;;
63606;SDS011;51327;52.466;-1.938;2022-07-12T07:33:25;1.25;;;0.55;;
63606;SDS011;51327;52.466;-1.938;2022-07-12T07:35:52;0.50;;;0.50;;
63606;SDS011;51327;52.466;-1.938;2022-07-12T07:38:18;1.17;;;0.40;;
63606;SDS011;51327;52.466;-1.938;2022-07-12T07:41:02;0.50;;;0.50;;
63606;SDS011;51327;52.466;-1.938;2022-07-12T07:43:31;0.65;;;0.40;;
63606;SDS011;51327;52.466;-1.938;2022-07-12T07:45:59;0.82;;;0.30;;
63606;SDS011;51327;52.466;-1.938;2022-07-12T07:48:29;0.40;;;0.40;;
63606;SDS011;51327;52.466;-1.938;2022-07-12T07:51:10;1.10;;;0.40;;
63606;SDS011;51327;52.466;-1.938;2022-07-12T07:53:52;0.55;;;0.40;;
63606;SDS011;51327;52.466;-1.938;2022-07-12T07:57:06;0.60;;;0.50;;
63606;SDS011;51327;52.466;-1.938;2022-07-12T07:59:34;0.63;;;0.28;;
63606;SDS011;51327;52.466;-1.938;2022-07-12T08:02:01;0.52;;;0.40;;
63606;SDS011;51327;52.466;-1.938;2022-07-12T08:04:26;0.73;;;0.30;;
63606;SDS011;51327;52.466;-1.938;2022-07-12T08:06:54;0.50;;;0.40;;
63606;SDS011;51327;52.466;-1.938;2022-07-12T08:09:23;0.80;;;0.45;;
63606;SDS011;51327;52.466;-1.938;2022-07-12T08:11:51;0.52;;;0.43;;
63606;SDS011;51327;52.466;-1.938;2022-07-12T08:14:19;0.60;;;0.47;;
63606;SDS011;51327;52.466;-1.938;2022-07-12T08:16:44;0.93;;;0.40;;
63606;SDS011;51327;52.466;-1.938;2022-07-12T08:19:10;0.50;;;0.50;;
63606;SDS011;51327;52.466;-1.938;2022-07-12T08:21:38;0.52;;;0.50;;
63606;SDS011;51327;52.466;-1.938;2022-07-12T08:24:10;0.40;;;0.40;;
63606;SDS011;51327;52.466;-1.938;2022-07-12T08:26:41;0.70;;;0.43;;
63606;SDS011;51327;52.466;-1.938;2022-07-12T08:29:06;0.40;;;0.40;;
63606;SDS011;51327;52.466;-1.938;2022-07-12T08:31:32;0.50;;;0.47;;
63606;SDS011;51327;52.466;-1.938;2022-07-12T08:34:00;0.28;;;0.28;;
63606;SDS011;51327;52.466;-1.938;2022-07-12T08:36:25;0.38;;;0.38;;
63606;SDS011;51327;52.466;-1.938;2022-07-12T08:38:51;0.50;;;0.32;;
63606;SDS011;51327;52.466;-1.938;2022-07-12T08:41:22;0.65;;;0.50;;
63606;SDS011;51327;52.466;-1.938;2022-07-12T08:43:51;0.32;;;0.30;;
63606;SDS011;51327;52.466;-1.938;2022-07-12T08:46:17;0.35;;;0.30;;
63606;SDS011;51327;52.466;-1.938;2022-07-12T08:48:43;0.63;;;0.43;;
63606;SDS011;51327;52.466;-1.938;2022-07-12T08:51:13;0.47;;;0.40;;
63606;SDS011;51327;52.466;-1.938;2022-07-12T08:53:50;0.28;;;0.28;;
63606;SDS011;51327;52.466;-1.938;2022-07-12T08:56:38;0.40;;;0.40;;
63606;SDS011;51327;52.466;-1.938;2022-07-12T09:04:18;1.42;;;0.57;;
63606;SDS011;51327;52.466;-1.938;2022-07-12T09:06:45;0.55;;;0.40;;
63606;SDS011;51327;52.466;-1.938;2022-07-12T09:09:30;0.50;;;0.40;;
63606;SDS011;51327;52.466;-1.938;2022-07-12T09:11:59;0.20;;;0.20;;
63606;SDS011;51327;52.466;-1.938;2022-07-12T09:14:27;0.32;;;0.32;;
63606;SDS011;51327;52.466;-1.938;2022-07-12T09:17:06;1.45;;;0.43;;
63606;SDS011;51327;52.466;-1.938;2022-07-12T09:19:40;1.02;;;0.50;;
63606;SDS011;51327;52.466;-1.938;2022-07-12T09:22:20;0.40;;;0.40;;
63606;SDS011;51327;52.466;-1.938;2022-07-12T09:24:48;0.55;;;0.35;;
63606;SDS011;51327;52.466;-1.938;2022-07-12T09:27:14;0.65;;;0.50;;
63606;SDS011;51327;52.466;-1.938;2022-07-12T09:29:47;0.52;;;0.40;;
63606;SDS011;51327;52.466;-1.938;2022-07-12T09:32:18;0.30;;;0.30;;
63606;SDS011;51327;52.466;-1.938;2022-07-12T09:35:04;0.75;;;0.47;;
63606;SDS011;51327;52.466;-1.938;2022-07-12T09:37:49;0.47;;;0.40;;
63606;SDS011;51327;52.466;-1.938;2022-07-12T09:40:16;0.22;;;0.20;;
63606;SDS011;51327;52.466;-1.938;2022-07-12T09:42:44;1.08;;;0.30;;
63606;SDS011;51327;52.466;-1.938;2022-07-12T09:45:11;1.02;;;0.43;;
63606;SDS011;51327;52.466;-1.938;2022-07-12T09:47:37;0.75;;;0.50;;
63606;SDS011;51327;52.466;-1.938;2022-07-12T09:50:05;0.20;;;0.20;;
63606;SDS011;51327;52.466;-1.938;2022-07-12T09:52:36;0.85;;;0.35;;
63606;SDS011;51327;52.466;-1.938;2022-07-12T09:55:03;0.75;;;0.52;;
63606;SDS011;51327;52.466;-1.938;2022-07-12T09:57:34;0.80;;;0.50;;
63606;SDS011;51327;52.466;-1.938;2022-07-12T10:00:05;0.40;;;0.40;;
63606;SDS011;51327;52.466;-1.938;2022-07-12T10:02:37;0.57;;;0.50;;
63606;SDS011;51327;52.466;-1.938;2022-07-12T10:05:05;0.70;;;0.50;;
63606;SDS011;51327;52.466;-1.938;2022-07-12T10:07:39;2.00;;;0.32;;
63606;SDS011;51327;52.466;-1.938;2022-07-12T10:10:05;1.05;;;0.40;;
63606;SDS011;51327;52.466;-1.938;2022-07-12T10:12:31;0.70;;;0.50;;
63606;SDS011;51327;52.466;-1.938;2022-07-12T10:15:02;0.50;;;0.40;;
63606;SDS011;51327;52.466;-1.938;2022-07-12T10:17:33;0.40;;;0.40;;
63606;SDS011;51327;52.466;-1.938;2022-07-12T10:22:44;0.40;;;0.40;;
63606;SDS011;51327;52.466;-1.938;2022-07-12T10:25:31;0.40;;;0.40;;
63606;SDS011;51327;52.466;-1.938;2022-07-12T10:27:59;0.40;;;0.40;;
63606;SDS011;51327;52.466;-1.938;2022-07-12T10:30:27;1.10;;;0.40;;
63606;SDS011;51327;52.466;-1.938;2022-07-12T10:32:59;0.90;;;0.40;;
63606;SDS011;51327;52.466;-1.938;2022-07-12T10:35:28;0.30;;;0.30;;
63606;SDS011;51327;52.466;-1.938;2022-07-12T10:40:40;0.32;;;0.30;;
63606;SDS011;51327;52.466;-1.938;2022-07-12T10:43:12;0.95;;;0.50;;
63606;SDS011;51327;52.466;-1.938;2022-07-12T10:45:44;0.65;;;0.40;;
63606;SDS011;51327;52.466;-1.938;2022-07-12T10:58:40;0.65;;;0.43;;
63606;SDS011;51327;52.466;-1.938;2022-07-12T11:01:21;0.47;;;0.40;;
63606;SDS011;51327;52.466;-1.938;2022-07-12T11:03:52;0.40;;;0.40;;
63606;SDS011;51327;52.466;-1.938;2022-07-12T11:06:34;0.47;;;0.40;;
63606;SDS011;51327;52.466;-1.938;2022-07-12T11:09:06;0.43;;;0.43;;
63606;SDS011;51327;52.466;-1.938;2022-07-12T11:11:42;0.47;;;0.40;;
63606;SDS011;51327;52.466;-1.938;2022-07-12T11:14:23;0.43;;;0.40;;
63606;SDS011;51327;52.466;-1.938;2022-07-12T11:16:53;1.13;;;0.32;;
63606;SDS011;51327;52.466;-1.938;2022-07-12T11:19:23;0.73;;;0.40;;
63606;SDS011;51327;52.466;-1.938;2022-07-12T11:21:50;0.35;;;0.35;;
63606;SDS011;51327;52.466;-1.938;2022-07-12T11:24:26;0.80;;;0.43;;
63606;SDS011;51327;52.466;-1.938;2022-07-12T11:26:52;0.68;;;0.45;;
63606;SDS011;51327;52.466;-1.938;2022-07-12T11:29:19;0.80;;;0.45;;
63606;SDS011;51327;52.466;-1.938;2022-07-12T11:31:47;0.60;;;0.40;;
63606;SDS011;51327;52.466;-1.938;2022-07-12T11:34:23;0.82;;;0.47;;
63606;SDS011;51327;52.466;-1.938;2022-07-12T11:36:53;0.98;;;0.40;;
63606;SDS011;51327;52.466;-1.938;2022-07-12T11:39:35;0.45;;;0.40;;
63606;SDS011;51327;52.466;-1.938;2022-07-12T11:42:02;0.82;;;0.60;;
63606;SDS011;51327;52.466;-1.938;2022-07-12T11:47:09;0.38;;;0.38;;
63606;SDS011;51327;52.466;-1.938;2022-07-12T11:49:44;0.63;;;0.40;;
63606;SDS011;51327;52.466;-1.938;2022-07-12T11:52:15;0.47;;;0.45;;
63606;SDS011;51327;52.466;-1.938;2022-07-12T11:54:45;1.10;;;0.55;;
63606;SDS011;51327;52.466;-1.938;2022-07-12T11:57:18;0.98;;;0.57;;
63606;SDS011;51327;52.466;-1.938;2022-07-12T11:59:47;0.70;;;0.50;;
63606;SDS011;51327;52.466;-1.938;2022-07-12T12:02:17;0.57;;;0.57;;
63606;SDS011;51327;52.466;-1.938;2022-07-12T12:07:37;0.40;;;0.40;;
63606;SDS011;51327;52.466;-1.938;2022-07-12T12:10:12;1.30;;;0.50;;
63606;SDS011;51327;52.466;-1.938;2022-07-12T12:12:45;0.50;;;0.50;;
63606;SDS011;51327;52.466;-1.938;2022-07-12T12:15:20;0.30;;;0.30;;
63606;SDS011;51327;52.466;-1.938;2022-07-12T12:18:01;0.88;;;0.43;;
63606;SDS011;51327;52.466;-1.938;2022-07-12T12:20:37;0.55;;;0.40;;
63606;SDS011;51327;52.466;-1.938;2022-07-12T12:23:04;0.63;;;0.52;;
63606;SDS011;51327;52.466;-1.938;2022-07-12T12:25:35;2.83;;;0.45;;
63606;SDS011;51327;52.466;-1.938;2022-07-12T12:28:39;0.95;;;0.60;;
63606;SDS011;51327;52.466;-1.938;2022-07-12T12:31:16;0.90;;;0.52;;
63606;SDS011;51327;52.466;-1.938;2022-07-12T12:34:17;0.73;;;0.60;;
63606;SDS011;51327;52.466;-1.938;2022-07-12T12:39:28;0.85;;;0.60;;
63606;SDS011;51327;52.466;-1.938;2022-07-12T12:41:58;0.80;;;0.60;;
63606;SDS011;51327;52.466;-1.938;2022-07-12T12:44:25;0.85;;;0.63;;
63606;SDS011;51327;52.466;-1.938;2022-07-12T12:46:55;0.55;;;0.55;;
63606;SDS011;51327;52.466;-1.938;2022-07-12T12:49:45;0.65;;;0.50;;
63606;SDS011;51327;52.466;-1.938;2022-07-12T12:52:15;0.55;;;0.50;;
63606;SDS011;51327;52.466;-1.938;2022-07-12T12:54:41;0.70;;;0.45;;
63606;SDS011;51327;52.466;-1.938;2022-07-12T12:57:09;0.50;;;0.50;;
63606;SDS011;51327;52.466;-1.938;2022-07-12T12:59:36;0.60;;;0.50;;
63606;SDS011;51327;52.466;-1.938;2022-07-12T13:02:22;0.65;;;0.50;;
63606;SDS011;51327;52.466;-1.938;2022-07-12T13:04:54;0.63;;;0.40;;
63606;SDS011;51327;52.466;-1.938;2022-07-12T13:07:24;0.43;;;0.43;;
63606;SDS011;51327;52.466;-1.938;2022-07-12T13:09:57;1.13;;;0.60;;
63606;SDS011;51327;52.466;-1.938;2022-07-12T13:14:52;0.47;;;0.43;;
63606;SDS011;51327;52.466;-1.938;2022-07-12T13:19:59;0.63;;;0.60;;
63606;SDS011;51327;52.466;-1.938;2022-07-12T13:45:41;0.52;;;0.52;;
63606;SDS011;51327;52.466;-1.938;2022-07-12T13:49:09;0.25;;;0.22;;
63606;SDS011;51327;52.466;-1.938;2022-07-12T13:51:37;0.40;;;0.40;;
63606;SDS011;51327;52.466;-1.938;2022-07-12T14:12:49;0.93;;;0.65;;
63606;SDS011;51327;52.466;-1.938;2022-07-12T14:21:22;0.65;;;0.57;;
63606;SDS011;51327;52.466;-1.938;2022-07-12T14:24:30;0.43;;;0.43;;
63606;SDS011;51327;52.466;-1.938;2022-07-12T14:27:11;0.50;;;0.50;;
63606;SDS011;51327;52.466;-1.938;2022-07-12T14:29:44;0.45;;;0.45;;
63606;SDS011;51327;52.466;-1.938;2022-07-12T14:32:34;0.75;;;0.50;;
63606;SDS011;51327;52.466;-1.938;2022-07-12T14:35:25;0.40;;;0.40;;
63606;SDS011;51327;52.466;-1.938;2022-07-12T14:37:57;0.60;;;0.57;;
63606;SDS011;51327;52.466;-1.938;2022-07-12T14:40:49;0.95;;;0.50;;
63606;SDS011;51327;52.466;-1.938;2022-07-12T14:46:08;0.50;;;0.50;;
63606;SDS011;51327;52.466;-1.938;2022-07-12T14:48:47;0.50;;;0.50;;
63606;SDS011;51327;52.466;-1.938;2022-07-12T14:51:15;0.60;;;0.60;;
63606;SDS011;51327;52.466;-1.938;2022-07-12T14:56:33;0.43;;;0.43;;
63606;SDS011;51327;52.466;-1.938;2022-07-12T14:59:08;0.57;;;0.45;;
63606;SDS011;51327;52.466;-1.938;2022-07-12T15:04:35;0.52;;;0.43;;
63606;SDS011;51327;52.466;-1.938;2022-07-12T15:10:06;0.50;;;0.50;;
63606;SDS011;51327;52.466;-1.938;2022-07-12T15:12:33;0.73;;;0.60;;
63606;SDS011;51327;52.466;-1.938;2022-07-12T15:15:07;0.80;;;0.43;;
63606;SDS011;51327;52.466;-1.938;2022-07-12T15:18:34;0.52;;;0.40;;
63606;SDS011;51327;52.466;-1.938;2022-07-12T15:21:07;1.35;;;0.60;;
63606;SDS011;51327;52.466;-1.938;2022-07-12T15:23:45;0.52;;;0.50;;
63606;SDS011;51327;52.466;-1.938;2022-07-12T15:26:27;0.68;;;0.57;;
63606;SDS011;51327;52.466;-1.938;2022-07-12T15:29:10;0.60;;;0.57;;
63606;SDS011;51327;52.466;-1.938;2022-07-12T15:32:05;1.02;;;0.60;;
63606;SDS011;51327;52.466;-1.938;2022-07-12T15:34:33;1.10;;;0.60;;
63606;SDS011;51327;52.466;-1.938;2022-07-12T15:36:58;0.50;;;0.40;;
63606;SDS011;51327;52.466;-1.938;2022-07-12T15:39:24;0.80;;;0.65;;
63606;SDS011;51327;52.466;-1.938;2022-07-12T15:41:51;0.75;;;0.70;;
63606;SDS011;51327;52.466;-1.938;2022-07-12T15:44:19;2.55;;;0.88;;
63606;SDS011;51327;52.466;-1.938;2022-07-12T15:46:47;1.10;;;0.68;;
63606;SDS011;51327;52.466;-1.938;2022-07-12T15:49:13;1.08;;;0.80;;
63606;SDS011;51327;52.466;-1.938;2022-07-12T15:51:39;0.68;;;0.60;;
63606;SDS011;51327;52.466;-1.938;2022-07-12T15:54:25;0.75;;;0.60;;
63606;SDS011;51327;52.466;-1.938;2022-07-12T15:56:53;0.70;;;0.63;;
63606;SDS011;51327;52.466;-1.938;2022-07-12T15:59:20;0.80;;;0.70;;
63606;SDS011;51327;52.466;-1.938;2022-07-12T16:01:48;0.90;;;0.90;;
63606;SDS011;51327;52.466;-1.938;2022-07-12T16:04:14;1.13;;;0.90;;
63606;SDS011;51327;52.466;-1.938;2022-07-12T16:06:39;1.77;;;0.90;;
63606;SDS011;51327;52.466;-1.938;2022-07-12T16:09:07;1.23;;;0.98;;
63606;SDS011;51327;52.466;-1.938;2022-07-12T16:11:35;1.80;;;1.05;;
63606;SDS011;51327;52.466;-1.938;2022-07-12T16:14:01;1.65;;;1.00;;
63606;SDS011;51327;52.466;-1.938;2022-07-12T16:16:29;0.90;;;0.80;;
63606;SDS011;51327;52.466;-1.938;2022-07-12T16:19:01;0.88;;;0.80;;
63606;SDS011;51327;52.466;-1.938;2022-07-12T16:21:34;1.45;;;1.00;;
63606;SDS011;51327;52.466;-1.938;2022-07-12T16:27:03;0.55;;;0.40;;
63606;SDS011;51327;52.466;-1.938;2022-07-12T16:32:36;1.05;;;0.75;;
63606;SDS011;51327;52.466;-1.938;2022-07-12T16:35:07;0.95;;;0.77;;
63606;SDS011;51327;52.466;-1.938;2022-07-12T16:37:39;1.00;;;0.80;;
63606;SDS011;51327;52.466;-1.938;2022-07-12T16:40:50;0.75;;;0.70;;
63606;SDS011;51327;52.466;-1.938;2022-07-12T16:43:16;0.88;;;0.73;;
63606;SDS011;51327;52.466;-1.938;2022-07-12T16:45:45;0.80;;;0.70;;
63606;SDS011;51327;52.466;-1.938;2022-07-12T16:51:24;1.00;;;0.70;;
63606;SDS011;51327;52.466;-1.938;2022-07-12T16:53:53;0.95;;;0.85;;
63606;SDS011;51327;52.466;-1.938;2022-07-12T16:56:22;1.05;;;0.70;;
63606;SDS011;51327;52.466;-1.938;2022-07-12T16:58:49;0.88;;;0.70;;
63606;SDS011;51327;52.466;-1.938;2022-07-12T17:01:16;0.88;;;0.70;;
63606;SDS011;51327;52.466;-1.938;2022-07-12T17:03:45;0.80;;;0.68;;
63606;SDS011;51327;52.466;-1.938;2022-07-12T17:06:14;0.80;;;0.73;;
63606;SDS011;51327;52.466;-1.938;2022-07-12T17:08:42;0.70;;;0.68;;
63606;SDS011;51327;52.466;-1.938;2022-07-12T17:11:09;0.90;;;0.73;;
63606;SDS011;51327;52.466;-1.938;2022-07-12T17:13:35;1.00;;;0.82;;
63606;SDS011;51327;52.466;-1.938;2022-07-12T17:16:04;0.93;;;0.70;;
63606;SDS011;51327;52.466;-1.938;2022-07-12T17:18:30;0.57;;;0.57;;
63606;SDS011;51327;52.466;-1.938;2022-07-12T17:20:56;0.57;;;0.50;;
63606;SDS011;51327;52.466;-1.938;2022-07-12T17:23:26;0.85;;;0.60;;
63606;SDS011;51327;52.466;-1.938;2022-07-12T17:25:57;0.98;;;0.60;;
63606;SDS011;51327;52.466;-1.938;2022-07-12T17:28:25;0.98;;;0.60;;
63606;SDS011;51327;52.466;-1.938;2022-07-12T17:30:51;0.80;;;0.68;;
63606;SDS011;51327;52.466;-1.938;2022-07-12T17:33:20;0.75;;;0.68;;
63606;SDS011;51327;52.466;-1.938;2022-07-12T17:35:48;1.05;;;0.60;;
63606;SDS011;51327;52.466;-1.938;2022-07-12T17:38:15;1.27;;;0.65;;
63606;SDS011;51327;52.466;-1.938;2022-07-12T17:40:40;0.70;;;0.60;;
63606;SDS011;51327;52.466;-1.938;2022-07-12T17:43:08;0.45;;;0.45;;
63606;SDS011;51327;52.466;-1.938;2022-07-12T17:45:34;1.77;;;0.57;;
63606;SDS011;51327;52.466;-1.938;2022-07-12T17:47:59;0.77;;;0.60;;
63606;SDS011;51327;52.466;-1.938;2022-07-12T17:50:29;0.65;;;0.52;;
63606;SDS011;51327;52.466;-1.938;2022-07-12T17:53:02;1.35;;;0.60;;
63606;SDS011;51327;52.466;-1.938;2022-07-12T17:55:30;1.10;;;0.60;;
63606;SDS011;51327;52.466;-1.938;2022-07-12T17:57:56;0.65;;;0.60;;
63606;SDS011;51327;52.466;-1.938;2022-07-12T18:00:42;0.80;;;0.70;;
63606;SDS011;51327;52.466;-1.938;2022-07-12T18:03:09;0.70;;;0.60;;
63606;SDS011;51327;52.466;-1.938;2022-07-12T18:05:34;1.58;;;0.70;;